sensor_id;sensor_type;location;lat;lon;timestamp;temperature;humidity
33827;DHT22;20128;45.582;5.298;2023-07-22T00:00:29;25.70;56.80
33827;DHT22;20128;45.582;5.298;2023-07-22T00:02:55;25.70;56.90
33827;DHT22;20128;45.582;5.298;2023-07-22T00:05:21;25.70;56.90
33827;DHT22;20128;45.582;5.298;2023-07-22T00:07:49;25.50;57.20
33827;DHT22;20128;45.582;5.298;2023-07-22T00:10:15;25.30;57.70
33827;DHT22;20128;45.582;5.298;2023-07-22T00:12:41;25.20;58.00
33827;DHT22;20128;45.582;5.298;2023-07-22T00:15:07;25.10;57.90
33827;DHT22;20128;45.582;5.298;2023-07-22T00:17:33;24.90;58.20
33827;DHT22;20128;45.582;5.298;2023-07-22T00:19:59;24.60;58.60
33827;DHT22;20128;45.582;5.298;2023-07-22T00:22:25;24.40;59.00
33827;DHT22;20128;45.582;5.298;2023-07-22T00:24:52;24.30;59.50
33827;DHT22;20128;45.582;5.298;2023-07-22T00:27:18;24.30;59.50
33827;DHT22;20128;45.582;5.298;2023-07-22T00:29:43;24.40;59.60
33827;DHT22;20128;45.582;5.298;2023-07-22T00:32:09;24.50;59.70
33827;DHT22;20128;45.582;5.298;2023-07-22T00:34:35;24.60;59.20
33827;DHT22;20128;45.582;5.298;2023-07-22T00:37:02;24.70;58.80
33827;DHT22;20128;45.582;5.298;2023-07-22T00:39:28;24.80;58.90
33827;DHT22;20128;45.582;5.298;2023-07-22T00:41:53;24.80;58.70
33827;DHT22;20128;45.582;5.298;2023-07-22T00:44:19;24.90;58.60
33827;DHT22;20128;45.582;5.298;2023-07-22T00:46:45;24.90;58.70
33827;DHT22;20128;45.582;5.298;2023-07-22T00:49:12;24.90;58.40
33827;DHT22;20128;45.582;5.298;2023-07-22T00:51:39;24.90;58.20
33827;DHT22;20128;45.582;5.298;2023-07-22T00:54:05;24.90;58.00
33827;DHT22;20128;45.582;5.298;2023-07-22T00:56:33;24.90;57.80
33827;DHT22;20128;45.582;5.298;2023-07-22T00:59:01;24.90;57.70
33827;DHT22;20128;45.582;5.298;2023-07-22T01:01:27;24.80;58.00
33827;DHT22;20128;45.582;5.298;2023-07-22T01:03:53;24.90;58.30
33827;DHT22;20128;45.582;5.298;2023-07-22T01:06:19;24.80;58.50
33827;DHT22;20128;45.582;5.298;2023-07-22T01:08:45;24.80;58.00
33827;DHT22;20128;45.582;5.298;2023-07-22T01:11:12;24.80;57.70
33827;DHT22;20128;45.582;5.298;2023-07-22T01:13:38;24.70;57.70
33827;DHT22;20128;45.582;5.298;2023-07-22T01:16:05;24.70;57.80
33827;DHT22;20128;45.582;5.298;2023-07-22T01:18:35;24.70;58.00
33827;DHT22;20128;45.582;5.298;2023-07-22T01:21:01;24.70;57.70
33827;DHT22;20128;45.582;5.298;2023-07-22T01:23:27;24.60;57.40
33827;DHT22;20128;45.582;5.298;2023-07-22T01:25:53;24.60;57.30
33827;DHT22;20128;45.582;5.298;2023-07-22T01:28:21;24.60;57.20
33827;DHT22;20128;45.582;5.298;2023-07-22T01:30:47;24.50;57.70
33827;DHT22;20128;45.582;5.298;2023-07-22T01:33:14;24.40;58.20
33827;DHT22;20128;45.582;5.298;2023-07-22T01:35:40;24.30;58.60
33827;DHT22;20128;45.582;5.298;2023-07-22T01:38:05;24.30;58.70
33827;DHT22;20128;45.582;5.298;2023-07-22T01:40:33;24.40;58.80
33827;DHT22;20128;45.582;5.298;2023-07-22T01:42:59;24.30;59.00
33827;DHT22;20128;45.582;5.298;2023-07-22T01:45:24;24.30;59.20
33827;DHT22;20128;45.582;5.298;2023-07-22T01:47:51;24.30;59.40
33827;DHT22;20128;45.582;5.298;2023-07-22T01:50:16;24.30;59.20
33827;DHT22;20128;45.582;5.298;2023-07-22T01:52:44;24.40;58.70
33827;DHT22;20128;45.582;5.298;2023-07-22T01:55:12;24.30;58.40
33827;DHT22;20128;45.582;5.298;2023-07-22T01:57:38;24.30;58.50
33827;DHT22;20128;45.582;5.298;2023-07-22T02:00:05;24.30;58.60
33827;DHT22;20128;45.582;5.298;2023-07-22T02:02:31;24.20;58.90
33827;DHT22;20128;45.582;5.298;2023-07-22T02:04:56;24.10;59.10
33827;DHT22;20128;45.582;5.298;2023-07-22T02:07:22;24.10;59.10
33827;DHT22;20128;45.582;5.298;2023-07-22T02:09:51;24.10;59.70
33827;DHT22;20128;45.582;5.298;2023-07-22T02:12:17;24.00;60.00
33827;DHT22;20128;45.582;5.298;2023-07-22T02:14:43;23.90;60.10
33827;DHT22;20128;45.582;5.298;2023-07-22T02:17:09;23.70;60.10
33827;DHT22;20128;45.582;5.298;2023-07-22T02:19:36;23.70;60.60
33827;DHT22;20128;45.582;5.298;2023-07-22T02:22:03;23.70;60.50
33827;DHT22;20128;45.582;5.298;2023-07-22T02:24:30;23.80;60.30
33827;DHT22;20128;45.582;5.298;2023-07-22T02:26:55;23.80;60.30
33827;DHT22;20128;45.582;5.298;2023-07-22T02:29:21;23.80;60.30
33827;DHT22;20128;45.582;5.298;2023-07-22T02:31:47;23.80;60.20
33827;DHT22;20128;45.582;5.298;2023-07-22T02:34:12;23.70;60.30
33827;DHT22;20128;45.582;5.298;2023-07-22T02:36:38;23.80;60.30
33827;DHT22;20128;45.582;5.298;2023-07-22T02:39:04;23.80;60.00
33827;DHT22;20128;45.582;5.298;2023-07-22T02:41:29;23.80;59.90
33827;DHT22;20128;45.582;5.298;2023-07-22T02:43:55;23.80;59.80
33827;DHT22;20128;45.582;5.298;2023-07-22T02:46:21;23.80;59.80
33827;DHT22;20128;45.582;5.298;2023-07-22T02:48:47;23.70;60.00
33827;DHT22;20128;45.582;5.298;2023-07-22T02:51:13;23.70;60.30
33827;DHT22;20128;45.582;5.298;2023-07-22T02:53:38;23.80;60.60
33827;DHT22;20128;45.582;5.298;2023-07-22T02:56:05;23.70;60.80
33827;DHT22;20128;45.582;5.298;2023-07-22T02:58:32;23.70;61.20
33827;DHT22;20128;45.582;5.298;2023-07-22T03:00:59;23.70;61.00
33827;DHT22;20128;45.582;5.298;2023-07-22T03:03:24;23.70;61.10
33827;DHT22;20128;45.582;5.298;2023-07-22T03:05:50;23.60;60.90
33827;DHT22;20128;45.582;5.298;2023-07-22T03:08:17;23.60;61.10
33827;DHT22;20128;45.582;5.298;2023-07-22T03:10:43;23.60;61.10
33827;DHT22;20128;45.582;5.298;2023-07-22T03:13:14;23.50;61.30
33827;DHT22;20128;45.582;5.298;2023-07-22T03:15:40;23.40;61.80
33827;DHT22;20128;45.582;5.298;2023-07-22T03:18:06;23.40;61.90
33827;DHT22;20128;45.582;5.298;2023-07-22T03:20:32;23.40;62.20
33827;DHT22;20128;45.582;5.298;2023-07-22T03:22:57;23.40;61.80
33827;DHT22;20128;45.582;5.298;2023-07-22T03:25:23;23.40;61.60
33827;DHT22;20128;45.582;5.298;2023-07-22T03:27:49;23.40;61.80
33827;DHT22;20128;45.582;5.298;2023-07-22T03:30:17;23.40;61.40
33827;DHT22;20128;45.582;5.298;2023-07-22T03:32:44;23.40;61.30
33827;DHT22;20128;45.582;5.298;2023-07-22T03:35:10;23.40;61.40
33827;DHT22;20128;45.582;5.298;2023-07-22T03:37:37;23.40;61.20
33827;DHT22;20128;45.582;5.298;2023-07-22T03:40:04;23.40;61.20
33827;DHT22;20128;45.582;5.298;2023-07-22T03:42:34;23.40;61.20
33827;DHT22;20128;45.582;5.298;2023-07-22T03:45:00;23.40;61.10
33827;DHT22;20128;45.582;5.298;2023-07-22T03:47:25;23.30;60.90
33827;DHT22;20128;45.582;5.298;2023-07-22T03:49:51;23.30;60.60
33827;DHT22;20128;45.582;5.298;2023-07-22T03:52:17;23.30;60.60
33827;DHT22;20128;45.582;5.298;2023-07-22T03:54:46;23.30;61.00
33827;DHT22;20128;45.582;5.298;2023-07-22T03:57:12;23.30;61.30
33827;DHT22;20128;45.582;5.298;2023-07-22T03:59:39;23.30;61.50
33827;DHT22;20128;45.582;5.298;2023-07-22T04:02:05;23.20;61.60
33827;DHT22;20128;45.582;5.298;2023-07-22T04:04:31;23.00;61.40
33827;DHT22;20128;45.582;5.298;2023-07-22T04:06:56;22.60;62.00
33827;DHT22;20128;45.582;5.298;2023-07-22T04:09:22;22.30;62.70
33827;DHT22;20128;45.582;5.298;2023-07-22T04:11:48;22.00;63.30
33827;DHT22;20128;45.582;5.298;2023-07-22T04:14:13;21.80;63.80
33827;DHT22;20128;45.582;5.298;2023-07-22T04:16:39;21.70;64.20
33827;DHT22;20128;45.582;5.298;2023-07-22T04:19:05;21.60;64.40
33827;DHT22;20128;45.582;5.298;2023-07-22T04:21:31;21.80;64.40
33827;DHT22;20128;45.582;5.298;2023-07-22T04:23:57;21.90;64.60
33827;DHT22;20128;45.582;5.298;2023-07-22T04:26:22;22.10;64.60
33827;DHT22;20128;45.582;5.298;2023-07-22T04:28:48;22.20;64.10
33827;DHT22;20128;45.582;5.298;2023-07-22T04:31:13;22.30;64.10
33827;DHT22;20128;45.582;5.298;2023-07-22T04:33:39;22.30;64.10
33827;DHT22;20128;45.582;5.298;2023-07-22T04:36:07;22.40;64.30
33827;DHT22;20128;45.582;5.298;2023-07-22T04:38:32;22.40;64.20
33827;DHT22;20128;45.582;5.298;2023-07-22T04:40:58;22.40;63.60
33827;DHT22;20128;45.582;5.298;2023-07-22T04:43:27;22.10;63.50
33827;DHT22;20128;45.582;5.298;2023-07-22T04:45:52;22.00;63.80
33827;DHT22;20128;45.582;5.298;2023-07-22T04:48:20;22.00;64.20
33827;DHT22;20128;45.582;5.298;2023-07-22T04:50:46;22.00;64.10
33827;DHT22;20128;45.582;5.298;2023-07-22T04:53:12;21.90;64.30
33827;DHT22;20128;45.582;5.298;2023-07-22T04:55:39;21.80;64.70
33827;DHT22;20128;45.582;5.298;2023-07-22T04:58:05;21.90;65.20
33827;DHT22;20128;45.582;5.298;2023-07-22T05:00:31;22.00;65.70
33827;DHT22;20128;45.582;5.298;2023-07-22T05:02:57;22.10;64.70
33827;DHT22;20128;45.582;5.298;2023-07-22T05:05:22;22.20;64.70
33827;DHT22;20128;45.582;5.298;2023-07-22T05:07:48;22.20;64.40
33827;DHT22;20128;45.582;5.298;2023-07-22T05:10:15;22.30;64.20
33827;DHT22;20128;45.582;5.298;2023-07-22T05:12:42;22.30;64.20
33827;DHT22;20128;45.582;5.298;2023-07-22T05:15:09;22.20;64.40
33827;DHT22;20128;45.582;5.298;2023-07-22T05:17:35;22.30;64.60
33827;DHT22;20128;45.582;5.298;2023-07-22T05:20:00;22.30;64.90
33827;DHT22;20128;45.582;5.298;2023-07-22T05:22:26;22.30;64.70
33827;DHT22;20128;45.582;5.298;2023-07-22T05:24:52;22.30;64.80
33827;DHT22;20128;45.582;5.298;2023-07-22T05:27:18;22.30;64.50
33827;DHT22;20128;45.582;5.298;2023-07-22T05:29:44;22.20;64.70
33827;DHT22;20128;45.582;5.298;2023-07-22T05:32:10;22.20;64.50
33827;DHT22;20128;45.582;5.298;2023-07-22T05:34:36;22.20;64.50
33827;DHT22;20128;45.582;5.298;2023-07-22T05:37:01;22.20;65.00
33827;DHT22;20128;45.582;5.298;2023-07-22T05:39:27;22.20;64.50
33827;DHT22;20128;45.582;5.298;2023-07-22T05:41:53;22.30;64.40
33827;DHT22;20128;45.582;5.298;2023-07-22T05:44:18;22.30;63.90
33827;DHT22;20128;45.582;5.298;2023-07-22T05:46:44;21.90;64.10
33827;DHT22;20128;45.582;5.298;2023-07-22T05:49:10;21.70;64.90
33827;DHT22;20128;45.582;5.298;2023-07-22T05:51:38;21.60;65.10
33827;DHT22;20128;45.582;5.298;2023-07-22T05:54:04;21.50;65.10
33827;DHT22;20128;45.582;5.298;2023-07-22T05:56:30;21.70;65.30
33827;DHT22;20128;45.582;5.298;2023-07-22T05:58:55;21.70;65.20
33827;DHT22;20128;45.582;5.298;2023-07-22T06:01:22;21.80;65.00
33827;DHT22;20128;45.582;5.298;2023-07-22T06:03:48;21.80;65.00
33827;DHT22;20128;45.582;5.298;2023-07-22T06:06:14;21.70;64.90
33827;DHT22;20128;45.582;5.298;2023-07-22T06:08:39;21.60;65.10
33827;DHT22;20128;45.582;5.298;2023-07-22T06:11:05;21.50;65.50
33827;DHT22;20128;45.582;5.298;2023-07-22T06:13:30;21.70;66.30
33827;DHT22;20128;45.582;5.298;2023-07-22T06:15:56;21.90;66.10
33827;DHT22;20128;45.582;5.298;2023-07-22T06:18:22;22.00;66.00
33827;DHT22;20128;45.582;5.298;2023-07-22T06:20:47;22.20;65.80
33827;DHT22;20128;45.582;5.298;2023-07-22T06:23:14;22.40;65.50
33827;DHT22;20128;45.582;5.298;2023-07-22T06:25:39;22.60;64.40
33827;DHT22;20128;45.582;5.298;2023-07-22T06:28:05;22.70;64.10
33827;DHT22;20128;45.582;5.298;2023-07-22T06:30:31;22.80;63.60
33827;DHT22;20128;45.582;5.298;2023-07-22T06:32:57;22.80;63.50
33827;DHT22;20128;45.582;5.298;2023-07-22T06:35:23;22.70;63.50
33827;DHT22;20128;45.582;5.298;2023-07-22T06:37:48;22.70;63.20
33827;DHT22;20128;45.582;5.298;2023-07-22T06:40:14;22.60;62.60
33827;DHT22;20128;45.582;5.298;2023-07-22T06:42:40;22.60;62.40
33827;DHT22;20128;45.582;5.298;2023-07-22T06:45:06;22.60;62.40
33827;DHT22;20128;45.582;5.298;2023-07-22T06:47:32;22.60;62.50
33827;DHT22;20128;45.582;5.298;2023-07-22T06:49:57;22.60;62.20
33827;DHT22;20128;45.582;5.298;2023-07-22T06:52:23;22.60;62.00
33827;DHT22;20128;45.582;5.298;2023-07-22T06:54:49;22.60;62.10
33827;DHT22;20128;45.582;5.298;2023-07-22T06:57:15;22.70;62.00
33827;DHT22;20128;45.582;5.298;2023-07-22T06:59:41;22.70;61.40
33827;DHT22;20128;45.582;5.298;2023-07-22T07:02:06;22.90;61.30
33827;DHT22;20128;45.582;5.298;2023-07-22T07:04:32;22.90;61.20
33827;DHT22;20128;45.582;5.298;2023-07-22T07:06:58;23.00;61.00
33827;DHT22;20128;45.582;5.298;2023-07-22T07:09:24;23.00;60.50
33827;DHT22;20128;45.582;5.298;2023-07-22T07:11:50;23.10;59.80
33827;DHT22;20128;45.582;5.298;2023-07-22T07:14:17;23.20;59.60
33827;DHT22;20128;45.582;5.298;2023-07-22T07:16:44;23.20;59.10
33827;DHT22;20128;45.582;5.298;2023-07-22T07:19:10;23.30;59.00
33827;DHT22;20128;45.582;5.298;2023-07-22T07:21:36;23.30;59.20
33827;DHT22;20128;45.582;5.298;2023-07-22T07:24:02;23.40;59.20
33827;DHT22;20128;45.582;5.298;2023-07-22T07:26:28;23.50;59.30
33827;DHT22;20128;45.582;5.298;2023-07-22T07:28:53;23.70;58.90
33827;DHT22;20128;45.582;5.298;2023-07-22T07:31:19;23.70;58.70
33827;DHT22;20128;45.582;5.298;2023-07-22T07:33:45;23.80;58.00
33827;DHT22;20128;45.582;5.298;2023-07-22T07:36:11;23.80;57.50
33827;DHT22;20128;45.582;5.298;2023-07-22T07:38:37;23.90;57.50
33827;DHT22;20128;45.582;5.298;2023-07-22T07:41:04;23.90;57.20
33827;DHT22;20128;45.582;5.298;2023-07-22T07:43:30;24.00;57.70
33827;DHT22;20128;45.582;5.298;2023-07-22T07:46:24;24.10;57.70
33827;DHT22;20128;45.582;5.298;2023-07-22T07:48:52;24.20;57.60
33827;DHT22;20128;45.582;5.298;2023-07-22T07:51:19;24.30;57.00
33827;DHT22;20128;45.582;5.298;2023-07-22T07:53:46;24.40;56.50
33827;DHT22;20128;45.582;5.298;2023-07-22T07:56:16;24.40;55.80
33827;DHT22;20128;45.582;5.298;2023-07-22T07:58:43;24.30;56.00
33827;DHT22;20128;45.582;5.298;2023-07-22T08:01:08;24.20;56.90
33827;DHT22;20128;45.582;5.298;2023-07-22T08:03:35;24.30;57.10
33827;DHT22;20128;45.582;5.298;2023-07-22T08:06:01;24.40;56.70
33827;DHT22;20128;45.582;5.298;2023-07-22T08:08:27;24.50;56.90
33827;DHT22;20128;45.582;5.298;2023-07-22T08:11:04;24.70;56.70
33827;DHT22;20128;45.582;5.298;2023-07-22T08:13:30;24.80;56.60
33827;DHT22;20128;45.582;5.298;2023-07-22T08:16:07;24.90;56.40
33827;DHT22;20128;45.582;5.298;2023-07-22T08:18:34;25.00;56.10
33827;DHT22;20128;45.582;5.298;2023-07-22T08:21:02;25.10;54.50
33827;DHT22;20128;45.582;5.298;2023-07-22T08:23:29;25.10;54.10
33827;DHT22;20128;45.582;5.298;2023-07-22T08:25:54;25.10;54.80
33827;DHT22;20128;45.582;5.298;2023-07-22T08:28:20;25.10;54.60
33827;DHT22;20128;45.582;5.298;2023-07-22T08:30:48;25.10;54.60
33827;DHT22;20128;45.582;5.298;2023-07-22T08:33:14;25.20;54.20
33827;DHT22;20128;45.582;5.298;2023-07-22T08:35:40;25.30;54.30
33827;DHT22;20128;45.582;5.298;2023-07-22T08:38:06;25.30;53.70
33827;DHT22;20128;45.582;5.298;2023-07-22T08:40:34;25.30;53.90
33827;DHT22;20128;45.582;5.298;2023-07-22T08:43:01;25.30;53.20
33827;DHT22;20128;45.582;5.298;2023-07-22T08:45:30;25.40;53.70
33827;DHT22;20128;45.582;5.298;2023-07-22T08:47:58;25.40;52.70
33827;DHT22;20128;45.582;5.298;2023-07-22T08:50:28;25.50;52.70
33827;DHT22;20128;45.582;5.298;2023-07-22T08:52:54;25.40;52.90
33827;DHT22;20128;45.582;5.298;2023-07-22T08:55:20;25.40;52.30
33827;DHT22;20128;45.582;5.298;2023-07-22T08:57:46;25.50;52.90
33827;DHT22;20128;45.582;5.298;2023-07-22T09:00:16;25.50;51.80
33827;DHT22;20128;45.582;5.298;2023-07-22T09:02:42;25.60;51.50
33827;DHT22;20128;45.582;5.298;2023-07-22T09:05:08;25.60;50.90
33827;DHT22;20128;45.582;5.298;2023-07-22T09:07:35;25.80;50.80
33827;DHT22;20128;45.582;5.298;2023-07-22T09:10:02;25.90;49.50
33827;DHT22;20128;45.582;5.298;2023-07-22T09:12:28;26.10;50.20
33827;DHT22;20128;45.582;5.298;2023-07-22T09:14:54;26.20;50.20
33827;DHT22;20128;45.582;5.298;2023-07-22T09:17:21;26.40;50.00
33827;DHT22;20128;45.582;5.298;2023-07-22T09:19:52;26.50;50.00
33827;DHT22;20128;45.582;5.298;2023-07-22T09:22:18;26.70;48.00
33827;DHT22;20128;45.582;5.298;2023-07-22T09:24:44;26.70;47.30
33827;DHT22;20128;45.582;5.298;2023-07-22T09:27:09;26.80;47.70
33827;DHT22;20128;45.582;5.298;2023-07-22T09:29:37;26.90;46.90
33827;DHT22;20128;45.582;5.298;2023-07-22T09:32:05;27.00;45.70
33827;DHT22;20128;45.582;5.298;2023-07-22T09:34:31;27.20;44.70
33827;DHT22;20128;45.582;5.298;2023-07-22T09:36:58;27.30;44.70
33827;DHT22;20128;45.582;5.298;2023-07-22T09:39:29;27.40;44.60
33827;DHT22;20128;45.582;5.298;2023-07-22T09:41:55;27.60;44.60
33827;DHT22;20128;45.582;5.298;2023-07-22T09:44:22;27.70;43.30
33827;DHT22;20128;45.582;5.298;2023-07-22T09:46:49;27.80;42.30
33827;DHT22;20128;45.582;5.298;2023-07-22T09:49:17;27.90;42.40
33827;DHT22;20128;45.582;5.298;2023-07-22T09:51:43;28.10;41.60
33827;DHT22;20128;45.582;5.298;2023-07-22T09:54:09;28.20;41.30
33827;DHT22;20128;45.582;5.298;2023-07-22T09:56:47;28.30;40.90
33827;DHT22;20128;45.582;5.298;2023-07-22T09:59:13;28.50;41.40
33827;DHT22;20128;45.582;5.298;2023-07-22T10:01:40;28.60;41.10
33827;DHT22;20128;45.582;5.298;2023-07-22T10:04:06;28.70;39.10
33827;DHT22;20128;45.582;5.298;2023-07-22T10:06:33;28.80;40.00
33827;DHT22;20128;45.582;5.298;2023-07-22T10:09:04;28.90;39.70
33827;DHT22;20128;45.582;5.298;2023-07-22T10:11:34;29.00;40.10
33827;DHT22;20128;45.582;5.298;2023-07-22T10:14:04;29.10;38.00
33827;DHT22;20128;45.582;5.298;2023-07-22T10:16:30;29.20;38.00
33827;DHT22;20128;45.582;5.298;2023-07-22T10:18:57;29.30;38.80
33827;DHT22;20128;45.582;5.298;2023-07-22T10:21:28;29.40;39.30
33827;DHT22;20128;45.582;5.298;2023-07-22T10:23:54;29.40;39.80
33827;DHT22;20128;45.582;5.298;2023-07-22T10:26:20;29.60;39.30
33827;DHT22;20128;45.582;5.298;2023-07-22T10:28:46;29.60;38.30
33827;DHT22;20128;45.582;5.298;2023-07-22T10:31:16;29.80;38.80
33827;DHT22;20128;45.582;5.298;2023-07-22T10:33:47;29.80;38.70
33827;DHT22;20128;45.582;5.298;2023-07-22T10:36:17;30.00;39.00
33827;DHT22;20128;45.582;5.298;2023-07-22T10:38:43;30.00;39.00
33827;DHT22;20128;45.582;5.298;2023-07-22T10:41:16;30.20;39.30
33827;DHT22;20128;45.582;5.298;2023-07-22T10:43:55;30.30;38.30
33827;DHT22;20128;45.582;5.298;2023-07-22T10:46:32;30.30;38.00
33827;DHT22;20128;45.582;5.298;2023-07-22T10:49:15;30.40;38.30
33827;DHT22;20128;45.582;5.298;2023-07-22T10:51:48;30.50;38.10
33827;DHT22;20128;45.582;5.298;2023-07-22T10:54:15;30.60;38.30
33827;DHT22;20128;45.582;5.298;2023-07-22T10:56:57;30.60;37.90
33827;DHT22;20128;45.582;5.298;2023-07-22T10:59:27;30.60;37.70
33827;DHT22;20128;45.582;5.298;2023-07-22T11:01:54;30.60;37.50
33827;DHT22;20128;45.582;5.298;2023-07-22T11:04:28;30.60;37.90
33827;DHT22;20128;45.582;5.298;2023-07-22T11:07:03;30.60;38.20
33827;DHT22;20128;45.582;5.298;2023-07-22T11:12:16;30.90;38.40
33827;DHT22;20128;45.582;5.298;2023-07-22T11:14:50;30.90;37.10
33827;DHT22;20128;45.582;5.298;2023-07-22T11:17:18;30.90;37.20
33827;DHT22;20128;45.582;5.298;2023-07-22T11:19:44;31.00;38.00
33827;DHT22;20128;45.582;5.298;2023-07-22T11:22:10;31.00;37.40
33827;DHT22;20128;45.582;5.298;2023-07-22T11:24:36;31.00;37.70
33827;DHT22;20128;45.582;5.298;2023-07-22T11:27:06;30.90;37.80
33827;DHT22;20128;45.582;5.298;2023-07-22T11:29:34;30.80;38.30
33827;DHT22;20128;45.582;5.298;2023-07-22T11:31:59;30.90;38.60
33827;DHT22;20128;45.582;5.298;2023-07-22T11:34:25;31.00;38.70
33827;DHT22;20128;45.582;5.298;2023-07-22T11:36:52;31.20;38.60
33827;DHT22;20128;45.582;5.298;2023-07-22T11:39:22;31.20;38.10
33827;DHT22;20128;45.582;5.298;2023-07-22T11:41:49;31.20;37.50
33827;DHT22;20128;45.582;5.298;2023-07-22T11:44:17;31.30;38.00
33827;DHT22;20128;45.582;5.298;2023-07-22T11:47:00;31.40;37.40
33827;DHT22;20128;45.582;5.298;2023-07-22T11:49:30;31.40;37.20
33827;DHT22;20128;45.582;5.298;2023-07-22T11:52:01;31.40;37.40
33827;DHT22;20128;45.582;5.298;2023-07-22T11:54:29;31.30;37.40
33827;DHT22;20128;45.582;5.298;2023-07-22T11:56:56;31.30;37.00
33827;DHT22;20128;45.582;5.298;2023-07-22T11:59:37;31.40;37.00
33827;DHT22;20128;45.582;5.298;2023-07-22T12:02:03;31.30;37.10
33827;DHT22;20128;45.582;5.298;2023-07-22T12:04:34;31.20;37.50
33827;DHT22;20128;45.582;5.298;2023-07-22T12:07:00;31.30;37.80
33827;DHT22;20128;45.582;5.298;2023-07-22T12:09:26;31.40;37.40
33827;DHT22;20128;45.582;5.298;2023-07-22T12:11:56;31.50;37.10
33827;DHT22;20128;45.582;5.298;2023-07-22T12:14:24;31.50;37.00
33827;DHT22;20128;45.582;5.298;2023-07-22T12:16:55;31.60;37.00
33827;DHT22;20128;45.582;5.298;2023-07-22T12:19:22;31.60;36.60
33827;DHT22;20128;45.582;5.298;2023-07-22T12:21:47;31.60;36.70
33827;DHT22;20128;45.582;5.298;2023-07-22T12:24:14;31.60;36.60
33827;DHT22;20128;45.582;5.298;2023-07-22T12:26:40;31.70;36.30
33827;DHT22;20128;45.582;5.298;2023-07-22T12:29:07;31.70;35.70
33827;DHT22;20128;45.582;5.298;2023-07-22T12:31:33;31.60;36.10
33827;DHT22;20128;45.582;5.298;2023-07-22T12:33:59;31.60;36.10
33827;DHT22;20128;45.582;5.298;2023-07-22T12:36:24;31.60;36.60
33827;DHT22;20128;45.582;5.298;2023-07-22T12:38:50;31.70;36.00
33827;DHT22;20128;45.582;5.298;2023-07-22T12:41:16;31.70;36.00
33827;DHT22;20128;45.582;5.298;2023-07-22T12:43:42;31.70;35.80
33827;DHT22;20128;45.582;5.298;2023-07-22T12:46:07;31.80;35.50
33827;DHT22;20128;45.582;5.298;2023-07-22T12:48:33;31.90;35.10
33827;DHT22;20128;45.582;5.298;2023-07-22T12:50:59;31.80;35.40
33827;DHT22;20128;45.582;5.298;2023-07-22T12:53:26;31.70;34.90
33827;DHT22;20128;45.582;5.298;2023-07-22T12:55:51;31.70;35.10
33827;DHT22;20128;45.582;5.298;2023-07-22T12:58:17;31.80;35.40
33827;DHT22;20128;45.582;5.298;2023-07-22T13:00:43;31.90;35.40
33827;DHT22;20128;45.582;5.298;2023-07-22T13:03:08;32.00;35.00
33827;DHT22;20128;45.582;5.298;2023-07-22T13:05:34;32.10;35.20
33827;DHT22;20128;45.582;5.298;2023-07-22T13:08:00;32.20;34.90
33827;DHT22;20128;45.582;5.298;2023-07-22T13:10:27;32.20;34.70
33827;DHT22;20128;45.582;5.298;2023-07-22T13:12:54;32.30;34.40
33827;DHT22;20128;45.582;5.298;2023-07-22T13:15:20;32.30;34.00
33827;DHT22;20128;45.582;5.298;2023-07-22T13:17:46;32.20;33.80
33827;DHT22;20128;45.582;5.298;2023-07-22T13:20:12;32.20;34.30
33827;DHT22;20128;45.582;5.298;2023-07-22T13:22:40;32.10;33.90
33827;DHT22;20128;45.582;5.298;2023-07-22T13:25:06;32.10;33.40
33827;DHT22;20128;45.582;5.298;2023-07-22T13:27:32;32.10;33.50
33827;DHT22;20128;45.582;5.298;2023-07-22T13:29:57;32.10;33.70
33827;DHT22;20128;45.582;5.298;2023-07-22T13:32:23;32.20;33.50
33827;DHT22;20128;45.582;5.298;2023-07-22T13:34:49;32.30;33.60
33827;DHT22;20128;45.582;5.298;2023-07-22T13:37:15;32.30;33.20
33827;DHT22;20128;45.582;5.298;2023-07-22T13:39:41;32.40;33.20
33827;DHT22;20128;45.582;5.298;2023-07-22T13:42:07;32.50;32.80
33827;DHT22;20128;45.582;5.298;2023-07-22T13:44:33;32.50;32.70
33827;DHT22;20128;45.582;5.298;2023-07-22T13:46:59;32.40;33.20
33827;DHT22;20128;45.582;5.298;2023-07-22T13:49:25;32.40;33.20
33827;DHT22;20128;45.582;5.298;2023-07-22T13:51:50;32.50;33.00
33827;DHT22;20128;45.582;5.298;2023-07-22T13:54:16;32.50;32.60
33827;DHT22;20128;45.582;5.298;2023-07-22T13:56:41;32.20;32.20
33827;DHT22;20128;45.582;5.298;2023-07-22T13:59:09;32.00;32.20
33827;DHT22;20128;45.582;5.298;2023-07-22T14:01:35;31.90;32.60
33827;DHT22;20128;45.582;5.298;2023-07-22T14:04:00;31.90;33.20
33827;DHT22;20128;45.582;5.298;2023-07-22T14:06:26;32.10;33.50
33827;DHT22;20128;45.582;5.298;2023-07-22T14:08:52;32.20;33.10
33827;DHT22;20128;45.582;5.298;2023-07-22T14:11:18;32.30;32.70
33827;DHT22;20128;45.582;5.298;2023-07-22T14:13:43;32.50;32.60
33827;DHT22;20128;45.582;5.298;2023-07-22T14:16:09;32.60;32.70
33827;DHT22;20128;45.582;5.298;2023-07-22T14:18:35;32.70;32.20
33827;DHT22;20128;45.582;5.298;2023-07-22T14:21:00;32.60;32.00
33827;DHT22;20128;45.582;5.298;2023-07-22T14:23:26;32.60;32.30
33827;DHT22;20128;45.582;5.298;2023-07-22T14:25:52;32.70;32.50
33827;DHT22;20128;45.582;5.298;2023-07-22T14:28:17;32.80;32.40
33827;DHT22;20128;45.582;5.298;2023-07-22T14:30:43;32.90;32.40
33827;DHT22;20128;45.582;5.298;2023-07-22T14:33:09;33.10;32.40
33827;DHT22;20128;45.582;5.298;2023-07-22T14:35:34;33.20;32.00
33827;DHT22;20128;45.582;5.298;2023-07-22T14:38:01;33.20;31.70
33827;DHT22;20128;45.582;5.298;2023-07-22T14:40:26;33.30;31.70
33827;DHT22;20128;45.582;5.298;2023-07-22T14:42:52;33.40;31.50
33827;DHT22;20128;45.582;5.298;2023-07-22T14:45:18;33.30;31.50
33827;DHT22;20128;45.582;5.298;2023-07-22T14:47:44;33.20;32.10
33827;DHT22;20128;45.582;5.298;2023-07-22T14:50:10;33.00;32.90
33827;DHT22;20128;45.582;5.298;2023-07-22T14:52:35;33.10;32.70
33827;DHT22;20128;45.582;5.298;2023-07-22T14:55:01;33.20;32.70
33827;DHT22;20128;45.582;5.298;2023-07-22T14:57:26;33.20;32.70
33827;DHT22;20128;45.582;5.298;2023-07-22T14:59:56;33.20;32.80
33827;DHT22;20128;45.582;5.298;2023-07-22T15:02:22;33.10;33.10
33827;DHT22;20128;45.582;5.298;2023-07-22T15:04:48;33.00;33.00
33827;DHT22;20128;45.582;5.298;2023-07-22T15:07:14;33.00;33.20
33827;DHT22;20128;45.582;5.298;2023-07-22T15:09:40;33.00;33.30
33827;DHT22;20128;45.582;5.298;2023-07-22T15:12:05;33.10;33.20
33827;DHT22;20128;45.582;5.298;2023-07-22T15:14:32;33.10;33.40
33827;DHT22;20128;45.582;5.298;2023-07-22T15:16:58;33.10;33.30
33827;DHT22;20128;45.582;5.298;2023-07-22T15:19:24;33.20;33.20
33827;DHT22;20128;45.582;5.298;2023-07-22T15:21:50;33.20;33.90
33827;DHT22;20128;45.582;5.298;2023-07-22T15:24:15;33.10;33.00
33827;DHT22;20128;45.582;5.298;2023-07-22T15:26:41;33.10;33.10
33827;DHT22;20128;45.582;5.298;2023-07-22T15:29:07;33.10;33.30